Time;durP1;ratioP1;P1;durP2;ratioP2;P2;SDS_P1;SDS_P2;PMS_P1;PMS_P2;Temp;Humidity;BMP_temperature;BMP_pressure;BME280_temperature;BME280_humidity;BME280_pressure;Samples;Min_cycle;Max_cycle;Signal;HPM_P1;HPM_P2
2021/12/25 00:00:52;;;;;;;13.27;6.07;;;1.40;99.90;;;;;;4974406;28;20109;-58
2021/12/25 00:03:18;;;;;;;14.10;5.63;;;1.30;99.90;;;;;;4981291;28;20039;-59
2021/12/25 00:05:52;;;;;;;13.45;5.57;;;1.30;99.90;;;;;;4974835;28;20124;-58
2021/12/25 00:08:25;;;;;;;10.82;5.25;;;1.30;99.90;;;;;;4989574;28;20173;-59
2021/12/25 00:10:51;;;;;;;15.47;5.80;;;1.30;99.90;;;;;;4993457;28;20050;-59
2021/12/25 00:13:20;;;;;;;12.35;6.05;;;1.30;99.90;;;;;;4992405;28;20038;-59
2021/12/25 00:15:47;;;;;;;12.65;5.60;;;1.30;99.90;;;;;;4993692;28;20042;-59
2021/12/25 00:18:13;;;;;;;11.77;5.45;;;1.20;99.90;;;;;;4956553;28;20470;-58
2021/12/25 00:20:39;;;;;;;13.05;5.40;;;1.20;99.90;;;;;;4972803;28;20394;-58
2021/12/25 00:23:06;;;;;;;13.98;5.97;;;1.20;99.90;;;;;;4974167;28;20554;-58
2021/12/25 00:25:36;;;;;;;12.23;5.40;;;1.20;99.90;;;;;;4974197;28;20046;-58
2021/12/25 00:28:18;;;;;;;12.13;4.95;;;1.20;99.90;;;;;;4956902;28;20098;-58
2021/12/25 00:31:00;;;;;;;10.60;4.90;;;1.20;99.90;;;;;;4990624;28;20397;-59
2021/12/25 00:36:01;;;;;;;;;;;1.10;99.90;;;;;;4974578;28;20055;-60
2021/12/25 00:38:26;;;;;;;10.23;4.40;;;1.10;99.90;;;;;;4975350;28;20384;-58
2021/12/25 00:40:52;;;;;;;11.15;3.92;;;1.00;99.90;;;;;;4977934;28;20090;-58
2021/12/25 00:43:18;;;;;;;9.23;4.68;;;1.00;99.90;;;;;;4973633;28;20053;-58
2021/12/25 00:45:43;;;;;;;11.40;4.60;;;1.00;99.90;;;;;;4988365;28;20429;-58
2021/12/25 00:48:09;;;;;;;11.57;4.03;;;1.00;99.90;;;;;;4991891;28;20367;-58
2021/12/25 00:50:35;;;;;;;10.07;4.10;;;1.00;99.90;;;;;;4974429;28;20371;-59
2021/12/25 00:53:00;;;;;;;13.27;3.88;;;1.00;99.90;;;;;;4971179;28;20053;-58
2021/12/25 00:55:26;;;;;;;12.32;3.92;;;1.00;99.90;;;;;;4972927;28;20086;-58
2021/12/25 00:57:52;;;;;;;11.88;4.13;;;0.90;99.90;;;;;;4973479;28;20109;-58
2021/12/25 01:00:18;;;;;;;9.27;3.38;;;0.90;99.90;;;;;;4989883;28;20124;-58
2021/12/25 01:02:45;;;;;;;11.10;3.70;;;0.90;99.90;;;;;;4983100;28;20105;-58
2021/12/25 01:05:12;;;;;;;9.77;3.97;;;0.90;99.90;;;;;;4985621;28;20038;-58
2021/12/25 01:07:38;;;;;;;12.65;4.45;;;0.90;99.90;;;;;;4992588;28;20038;-58
2021/12/25 01:10:08;;;;;;;10.82;4.00;;;0.80;99.90;;;;;;4989231;28;20042;-59
2021/12/25 01:12:49;;;;;;;10.18;4.13;;;0.80;99.90;;;;;;4992099;28;20121;-58
2021/12/25 01:15:18;;;;;;;11.80;3.88;;;0.80;99.90;;;;;;4974888;28;20070;-58
2021/12/25 01:26:03;;;;;;;11.60;4.30;;;0.70;99.90;;;;;;4932621;29;20048;-58
2021/12/25 01:31:11;;;;;;;10.65;4.00;;;0.60;99.90;;;;;;4992531;28;20137;-58
2021/12/25 01:36:34;;;;;;;11.45;3.85;;;0.50;99.90;;;;;;4956241;28;20058;-58
2021/12/25 01:49:33;;;;;;;;;;;0.30;99.90;;;;;;4978265;28;20097;-58
2021/12/25 01:51:59;;;;;;;9.45;2.78;;;0.20;99.90;;;;;;4972949;28;20325;-58
2021/12/25 01:54:24;;;;;;;6.88;2.83;;;0.10;99.90;;;;;;4972586;28;20556;-58
2021/12/25 01:56:50;;;;;;;8.40;2.72;;;0.10;99.90;;;;;;4972068;28;20460;-59
2021/12/25 01:59:16;;;;;;;8.15;2.30;;;0.10;99.90;;;;;;4972175;28;20071;-59
2021/12/25 02:01:43;;;;;;;8.68;2.72;;;0.00;99.90;;;;;;4971509;28;20039;-58
2021/12/25 02:04:09;;;;;;;8.02;2.60;;;0.00;99.90;;;;;;4972806;28;20474;-58
2021/12/25 02:06:35;;;;;;;5.43;2.22;;;-0.10;99.90;;;;;;4972515;28;20038;-58
2021/12/25 02:09:02;;;;;;;7.18;2.08;;;-0.10;99.90;;;;;;4971631;28;20130;-58
2021/12/25 02:11:28;;;;;;;7.13;2.17;;;-0.10;99.90;;;;;;4982250;28;20121;-59
2021/12/25 02:13:55;;;;;;;5.25;1.73;;;-0.10;99.90;;;;;;4985504;28;20078;-58
2021/12/25 02:16:24;;;;;;;8.65;2.00;;;-0.20;99.90;;;;;;4972428;28;20043;-59
2021/12/25 02:19:14;;;;;;;8.82;2.17;;;-0.20;99.90;;;;;;4979228;28;20038;-58
2021/12/25 02:21:40;;;;;;;7.65;1.98;;;-0.30;99.90;;;;;;4971275;28;20550;-58
2021/12/25 02:24:12;;;;;;;7.53;1.65;;;-0.30;99.90;;;;;;4979206;28;20035;-58
2021/12/25 02:26:40;;;;;;;8.65;1.90;;;-0.40;99.90;;;;;;4991573;28;20033;-58
2021/12/25 02:29:06;;;;;;;12.13;2.00;;;-0.40;99.90;;;;;;4990008;28;20102;-58
2021/12/25 02:31:32;;;;;;;7.95;1.70;;;-0.40;99.90;;;;;;4991453;28;20433;-57
2021/12/25 02:33:58;;;;;;;6.18;1.70;;;-0.50;99.90;;;;;;4953717;28;20046;-58
2021/12/25 02:36:23;;;;;;;5.55;1.65;;;-0.50;99.90;;;;;;4971979;28;20394;-58
2021/12/25 02:38:49;;;;;;;4.25;1.23;;;-0.50;99.90;;;;;;4972130;28;20050;-57
2021/12/25 02:41:16;;;;;;;4.93;1.48;;;-0.60;99.90;;;;;;4971833;28;20488;-58
2021/12/25 02:43:44;;;;;;;4.68;1.42;;;-0.60;99.90;;;;;;4986747;28;20034;-58
2021/12/25 02:46:11;;;;;;;7.47;1.60;;;-0.60;99.90;;;;;;4971897;28;20465;-58
2021/12/25 02:48:37;;;;;;;6.55;1.27;;;-0.70;99.90;;;;;;4971640;28;20046;-59
2021/12/25 02:51:04;;;;;;;6.53;1.40;;;-0.70;99.90;;;;;;4970862;28;20093;-57
2021/12/25 02:53:30;;;;;;;5.45;1.45;;;-0.80;99.90;;;;;;4979956;28;20124;-59
2021/12/25 02:55:56;;;;;;;8.63;1.38;;;-0.80;99.90;;;;;;4970176;28;20039;-59
2021/12/25 02:58:23;;;;;;;6.55;1.38;;;-0.80;99.90;;;;;;4971504;28;20690;-58
2021/12/25 03:00:53;;;;;;;5.22;1.52;;;-0.80;99.90;;;;;;4971681;28;20039;-59
2021/12/25 03:03:19;;;;;;;7.57;1.45;;;-0.90;99.90;;;;;;4970742;28;20042;-57
2021/12/25 03:05:45;;;;;;;6.53;1.52;;;-0.90;99.90;;;;;;4990302;28;20047;-58
2021/12/25 03:08:12;;;;;;;6.60;1.40;;;-1.00;99.90;;;;;;4971540;28;20053;-59
2021/12/25 03:10:39;;;;;;;6.57;1.42;;;-1.00;99.90;;;;;;4971267;28;20346;-58
2021/12/25 03:15:51;;;;;;;4.70;1.23;;;-1.00;99.90;;;;;;4971345;28;20046;-58
2021/12/25 03:18:20;;;;;;;6.13;1.25;;;-1.10;99.90;;;;;;4971255;28;20039;-58
2021/12/25 03:20:48;;;;;;;4.95;1.23;;;-1.10;99.90;;;;;;4970267;28;20141;-58
2021/12/25 03:23:18;;;;;;;6.65;1.30;;;-1.20;99.90;;;;;;4974785;28;20039;-58
2021/12/25 03:25:48;;;;;;;6.68;1.30;;;-1.10;99.90;;;;;;4971135;28;20054;-58
2021/12/25 03:28:15;;;;;;;5.20;1.40;;;-1.20;99.90;;;;;;4972048;28;20129;-59
2021/12/25 03:30:43;;;;;;;8.82;1.15;;;-1.20;99.90;;;;;;4974849;28;20566;-58
2021/12/25 03:33:12;;;;;;;3.95;1.20;;;-1.30;99.90;;;;;;4985361;28;20153;-58
2021/12/25 03:35:37;;;;;;;7.43;1.20;;;-1.30;99.90;;;;;;4975415;28;20078;-58
2021/12/25 03:38:05;;;;;;;6.10;1.17;;;-1.30;99.90;;;;;;4974689;28;20389;-58
2021/12/25 03:40:31;;;;;;;5.70;1.25;;;-1.40;99.90;;;;;;4988801;28;20046;-58
2021/12/25 03:42:57;;;;;;;5.80;1.20;;;-1.40;99.90;;;;;;4974009;28;20035;-58
2021/12/25 03:45:24;;;;;;;5.38;1.55;;;-1.40;99.90;;;;;;4974033;28;20054;-59
2021/12/25 03:47:52;;;;;;;7.13;1.67;;;-1.40;99.90;;;;;;4983385;28;20129;-58
2021/12/25 03:58:32;;;;;;;;;;;-1.60;99.90;;;;;;4991685;28;20798;-58
2021/12/25 04:01:09;;;;;;;4.60;1.35;;;-1.60;99.90;;;;;;4974201;28;19918;-58
2021/12/25 04:03:59;;;;;;;4.18;1.10;;;-1.60;99.90;;;;;;4973922;28;20679;-58
2021/12/25 04:06:24;;;;;;;3.65;1.02;;;-1.60;99.90;;;;;;4981806;28;20045;-57
2021/12/25 04:08:52;;;;;;;4.82;1.17;;;-1.60;99.90;;;;;;4985787;28;20035;-58
2021/12/25 04:11:27;;;;;;;6.28;1.20;;;-1.70;99.90;;;;;;4974294;28;20046;-57
2021/12/25 04:13:54;;;;;;;1.88;0.85;;;-1.70;99.90;;;;;;4987559;28;20097;-58
2021/12/25 04:16:20;;;;;;;6.93;1.10;;;-1.70;99.90;;;;;;4974027;28;20039;-58
2021/12/25 04:18:45;;;;;;;2.90;0.95;;;-1.70;99.90;;;;;;4975519;28;20061;-58
2021/12/25 04:21:11;;;;;;;2.35;0.93;;;-1.80;99.90;;;;;;4993120;28;20468;-57
2021/12/25 04:23:40;;;;;;;2.75;0.80;;;-1.80;99.90;;;;;;4984417;28;20042;-57
2021/12/25 04:26:07;;;;;;;6.03;0.80;;;-1.80;99.90;;;;;;4992153;28;20109;-58
2021/12/25 04:28:42;;;;;;;4.03;1.00;;;-1.90;99.90;;;;;;4976543;28;20039;-58
2021/12/25 05:03:47;;;;;;;;;;;-2.20;99.90;;;;;;4979654;28;20429;-58
2021/12/25 05:06:12;;;;;;;5.43;1.00;;;-2.30;99.90;;;;;;4973352;28;20552;-57
2021/12/25 05:08:38;;;;;;;3.33;0.90;;;-2.30;99.90;;;;;;4972516;28;20130;-58
2021/12/25 05:11:04;;;;;;;5.78;0.80;;;-2.30;99.90;;;;;;4973164;28;20074;-59
2021/12/25 05:13:30;;;;;;;3.35;0.70;;;-2.30;99.90;;;;;;4973291;28;20038;-58
2021/12/25 05:15:56;;;;;;;2.40;0.68;;;-2.30;99.90;;;;;;4992236;28;20042;-57
2021/12/25 05:18:22;;;;;;;3.17;0.98;;;-2.40;99.90;;;;;;4977634;28;20101;-57
2021/12/25 05:20:47;;;;;;;2.00;0.57;;;-2.40;99.90;;;;;;4972906;28;20424;-59
2021/12/25 05:23:13;;;;;;;3.08;0.77;;;-2.40;99.90;;;;;;4972464;28;20050;-58
2021/12/25 05:25:40;;;;;;;4.05;1.02;;;-2.40;99.90;;;;;;4972551;28;20058;-58
2021/12/25 05:28:06;;;;;;;3.65;0.68;;;-2.50;99.90;;;;;;4973117;28;20041;-55
2021/12/25 05:30:32;;;;;;;2.08;0.80;;;-2.50;99.90;;;;;;4972906;28;20043;-58
2021/12/25 05:32:58;;;;;;;2.30;0.80;;;-2.50;99.90;;;;;;4984091;28;20064;-56
2021/12/25 05:35:23;;;;;;;3.78;0.80;;;-2.50;99.90;;;;;;4972647;28;20058;-59
2021/12/25 05:37:56;;;;;;;5.30;1.23;;;-2.50;99.90;;;;;;4972187;28;20071;-58
2021/12/25 05:40:23;;;;;;;2.13;0.60;;;-2.60;99.90;;;;;;4974429;28;20398;-59
2021/12/25 05:42:50;;;;;;;2.45;0.90;;;-2.60;99.90;;;;;;4972138;28;20393;-58
2021/12/25 05:45:16;;;;;;;3.85;1.00;;;-2.60;99.90;;;;;;4972508;28;20039;-59
2021/12/25 05:47:42;;;;;;;2.58;0.80;;;-2.60;99.90;;;;;;4972488;28;20042;-58
2021/12/25 05:50:08;;;;;;;4.43;0.98;;;-2.70;99.90;;;;;;4970862;28;20089;-58
2021/12/25 05:52:34;;;;;;;2.53;0.90;;;-2.70;99.90;;;;;;4972235;28;20042;-56
2021/12/25 05:55:00;;;;;;;3.92;0.80;;;-2.70;99.90;;;;;;4971809;28;20565;-58
2021/12/25 05:57:25;;;;;;;2.22;1.00;;;-2.70;99.90;;;;;;4971085;28;20093;-57
2021/12/25 05:59:51;;;;;;;3.30;1.00;;;-2.70;99.90;;;;;;4981092;28;20038;-58
2021/12/25 06:02:17;;;;;;;3.17;0.77;;;-2.70;99.90;;;;;;4972333;28;20046;-57
2021/12/25 06:04:42;;;;;;;2.65;0.90;;;-2.80;99.90;;;;;;4980004;28;20489;-59
2021/12/25 06:07:08;;;;;;;3.30;0.90;;;-2.80;99.90;;;;;;4970603;28;20085;-58
2021/12/25 06:09:34;;;;;;;1.95;0.88;;;-2.80;99.90;;;;;;4971927;28;20435;-58
2021/12/25 06:12:00;;;;;;;2.75;1.10;;;-2.80;99.90;;;;;;4972351;28;20050;-58
2021/12/25 06:14:26;;;;;;;2.28;0.80;;;-2.80;99.90;;;;;;4973268;28;20081;-58
2021/12/25 06:16:52;;;;;;;2.70;1.10;;;-2.80;99.90;;;;;;4971023;28;20050;-57
2021/12/25 06:19:18;;;;;;;2.50;1.02;;;-2.80;99.90;;;;;;4971952;28;20094;-58
2021/12/25 06:21:44;;;;;;;3.92;1.00;;;-2.80;99.90;;;;;;4971421;28;20046;-58
2021/12/25 06:24:09;;;;;;;3.15;1.15;;;-2.90;99.90;;;;;;4971250;28;20046;-59
2021/12/25 06:26:38;;;;;;;4.20;0.90;;;-2.90;99.90;;;;;;4954712;28;20035;-59
2021/12/25 06:29:04;;;;;;;1.52;0.70;;;-2.90;99.90;;;;;;4971522;28;20419;-58
2021/12/25 06:31:30;;;;;;;3.70;1.58;;;-2.90;99.90;;;;;;4972577;28;20043;-58
2021/12/25 06:33:58;;;;;;;2.53;0.82;;;-2.90;99.90;;;;;;4971788;28;20426;-59
2021/12/25 06:36:24;;;;;;;2.42;0.88;;;-2.90;99.90;;;;;;4971858;28;20073;-58
2021/12/25 06:38:50;;;;;;;2.58;1.10;;;-2.90;99.90;;;;;;4972506;28;20074;-58
2021/12/25 06:41:15;;;;;;;2.13;0.80;;;-2.90;99.90;;;;;;4971852;28;20035;-57
2021/12/25 06:43:41;;;;;;;4.25;0.90;;;-3.00;99.90;;;;;;4972733;28;20053;-59
2021/12/25 06:46:08;;;;;;;2.33;0.75;;;-3.00;99.90;;;;;;4971889;28;20121;-58
2021/12/25 06:48:34;;;;;;;3.17;0.90;;;-3.00;99.90;;;;;;4971678;28;20042;-58
2021/12/25 06:51:01;;;;;;;2.63;0.80;;;-3.00;99.90;;;;;;4972003;28;20074;-57
2021/12/25 06:53:26;;;;;;;3.88;1.00;;;-3.00;99.90;;;;;;4977136;28;20042;-58
2021/12/25 06:55:52;;;;;;;3.63;0.90;;;-3.00;99.90;;;;;;4971636;28;20050;-59
2021/12/25 06:58:18;;;;;;;2.85;0.88;;;-3.10;99.90;;;;;;4972184;28;20097;-58
2021/12/25 07:00:43;;;;;;;2.20;1.00;;;-3.10;99.90;;;;;;4990736;28;20470;-58
2021/12/25 07:03:10;;;;;;;2.63;0.90;;;-3.10;99.90;;;;;;4988791;28;20043;-59
2021/12/25 07:05:35;;;;;;;4.82;1.00;;;-3.10;99.90;;;;;;4993113;28;20046;-58
2021/12/25 07:08:01;;;;;;;4.32;0.80;;;-3.10;99.90;;;;;;4994694;28;20092;-58
2021/12/25 07:10:27;;;;;;;2.08;0.73;;;-3.20;99.90;;;;;;4977223;28;20045;-59
2021/12/25 07:12:54;;;;;;;2.65;0.80;;;-3.20;99.90;;;;;;4975983;28;20038;-58
2021/12/25 07:15:19;;;;;;;2.42;0.80;;;-3.20;99.90;;;;;;4975506;28;20057;-58
2021/12/25 07:17:46;;;;;;;1.80;0.75;;;-3.20;99.90;;;;;;4987176;28;20038;-58
2021/12/25 07:20:12;;;;;;;2.47;0.70;;;-3.30;99.90;;;;;;4975109;28;20046;-58
2021/12/25 07:22:38;;;;;;;3.65;0.70;;;-3.30;99.90;;;;;;4974891;28;20061;-58
2021/12/25 07:25:05;;;;;;;3.03;0.65;;;-3.30;99.90;;;;;;4976738;28;20043;-58
2021/12/25 07:27:31;;;;;;;3.53;0.60;;;-3.30;99.90;;;;;;4975125;28;20039;-58
2021/12/25 07:29:57;;;;;;;2.03;0.63;;;-3.30;99.90;;;;;;4974182;28;20038;-58
2021/12/25 07:32:22;;;;;;;1.75;0.63;;;-3.40;99.90;;;;;;4972672;28;20121;-56
2021/12/25 07:34:50;;;;;;;1.77;0.70;;;-3.40;99.90;;;;;;4984417;28;20042;-58
2021/12/25 07:37:16;;;;;;;1.33;0.68;;;-3.40;99.90;;;;;;4994253;28;20474;-58
2021/12/25 07:39:43;;;;;;;5.03;0.80;;;-3.40;99.90;;;;;;4985508;28;20093;-59
2021/12/25 07:42:09;;;;;;;1.38;0.60;;;-3.40;99.90;;;;;;4974854;28;20049;-58
2021/12/25 07:44:35;;;;;;;3.50;0.70;;;-3.40;99.90;;;;;;4975956;28;20073;-58
2021/12/25 07:47:01;;;;;;;4.13;0.70;;;-3.50;99.90;;;;;;4970594;28;20069;-58
2021/12/25 07:49:27;;;;;;;4.03;0.50;;;-3.50;99.90;;;;;;4972574;28;20042;-58
2021/12/25 07:51:53;;;;;;;2.55;0.60;;;-3.50;99.90;;;;;;4990480;28;20042;-57
2021/12/25 07:54:19;;;;;;;2.40;0.60;;;-3.50;99.90;;;;;;4985058;28;20046;-59
2021/12/25 07:56:44;;;;;;;2.53;0.75;;;-3.50;99.90;;;;;;4974482;28;20043;-57
2021/12/25 07:59:10;;;;;;;2.22;0.70;;;-3.50;99.90;;;;;;4980207;28;20054;-57
2021/12/25 08:01:36;;;;;;;1.70;0.60;;;-3.60;99.90;;;;;;4993741;28;20030;-58
2021/12/25 08:04:03;;;;;;;2.90;0.70;;;-3.50;99.90;;;;;;4977506;28;20047;-58
2021/12/25 08:06:30;;;;;;;2.33;0.80;;;-3.60;99.90;;;;;;4973139;28;20049;-58
2021/12/25 08:09:00;;;;;;;2.13;0.55;;;-3.60;99.90;;;;;;4974439;28;20487;-58
2021/12/25 08:11:26;;;;;;;1.52;0.63;;;-3.60;99.90;;;;;;4974556;28;20035;-58
2021/12/25 08:13:51;;;;;;;2.05;0.70;;;-3.60;99.90;;;;;;4988362;28;20118;-58
2021/12/25 08:16:17;;;;;;;1.65;0.60;;;-3.60;99.90;;;;;;4973631;28;20130;-58
2021/12/25 08:18:43;;;;;;;3.53;0.70;;;-3.60;99.90;;;;;;4985124;28;20089;-59
2021/12/25 08:21:08;;;;;;;3.60;0.82;;;-3.60;99.90;;;;;;4974170;28;20482;-58
2021/12/25 08:23:34;;;;;;;2.13;0.55;;;-3.60;99.90;;;;;;4972707;28;20092;-58
2021/12/25 08:26:02;;;;;;;2.63;0.73;;;-3.60;99.90;;;;;;4973701;28;20300;-58
2021/12/25 08:28:27;;;;;;;2.40;0.70;;;-3.60;99.90;;;;;;4973393;28;20117;-60
2021/12/25 08:30:53;;;;;;;2.30;0.70;;;-3.60;99.90;;;;;;4955520;28;20129;-58
2021/12/25 08:33:19;;;;;;;2.08;0.60;;;-3.60;99.90;;;;;;4980387;28;20042;-59
2021/12/25 08:35:45;;;;;;;1.92;0.60;;;-3.60;99.90;;;;;;4972790;28;20109;-59
2021/12/25 08:38:11;;;;;;;2.70;0.60;;;-3.60;99.90;;;;;;4972593;28;20517;-59
2021/12/25 08:40:38;;;;;;;4.45;0.60;;;-3.60;99.90;;;;;;4971739;28;20039;-59
2021/12/25 08:43:06;;;;;;;2.17;0.60;;;-3.60;99.90;;;;;;4973716;28;20039;-59
2021/12/25 08:48:08;;;;;;;3.45;0.80;;;-3.60;99.90;;;;;;4991980;28;20046;-59
2021/12/25 08:50:34;;;;;;;4.18;0.80;;;-3.60;99.90;;;;;;4977597;28;20544;-58
2021/12/25 08:53:00;;;;;;;2.70;0.70;;;-3.60;99.90;;;;;;4981308;28;20696;-59
2021/12/25 08:55:26;;;;;;;1.90;0.70;;;-3.60;99.90;;;;;;4972201;28;20039;-59
2021/12/25 08:57:51;;;;;;;5.88;0.80;;;-3.60;99.90;;;;;;4971925;28;20460;-59
2021/12/25 09:00:19;;;;;;;2.72;0.70;;;-3.50;99.90;;;;;;4973019;28;20046;-56
2021/12/25 09:02:46;;;;;;;1.73;0.80;;;-3.50;99.90;;;;;;4974571;28;20501;-57
2021/12/25 09:05:11;;;;;;;3.65;0.80;;;-3.50;99.90;;;;;;4983249;28;20385;-57
2021/12/25 09:07:37;;;;;;;2.28;0.60;;;-3.50;99.90;;;;;;4973448;28;20038;-56
2021/12/25 09:10:03;;;;;;;3.85;0.70;;;-3.50;99.90;;;;;;4978644;28;20105;-59
2021/12/25 09:12:29;;;;;;;2.33;0.70;;;-3.40;99.90;;;;;;4972627;28;20162;-56
2021/12/25 09:14:55;;;;;;;4.95;0.65;;;-3.40;99.90;;;;;;4972342;28;20074;-57
2021/12/25 09:17:21;;;;;;;1.27;0.60;;;-3.40;99.90;;;;;;4971716;28;20050;-56
2021/12/25 09:19:46;;;;;;;6.18;0.70;;;-3.40;99.90;;;;;;4972926;28;20054;-59
2021/12/25 09:22:13;;;;;;;3.60;0.60;;;-3.40;99.90;;;;;;4985040;28;20045;-57
2021/12/25 09:24:40;;;;;;;2.05;0.50;;;-3.40;99.90;;;;;;4982071;28;20394;-57
2021/12/25 09:27:06;;;;;;;2.28;0.65;;;-3.30;99.90;;;;;;4970348;28;20071;-57
2021/12/25 09:29:33;;;;;;;4.50;0.68;;;-3.30;99.90;;;;;;4971826;28;20121;-57
2021/12/25 09:31:59;;;;;;;3.05;0.80;;;-3.30;99.90;;;;;;4975092;28;20045;-58
2021/12/25 09:34:25;;;;;;;4.13;1.00;;;-3.30;99.90;;;;;;4962413;28;20159;-58
2021/12/25 09:36:51;;;;;;;3.40;1.02;;;-3.20;99.90;;;;;;4960727;28;20100;-57
2021/12/25 09:39:18;;;;;;;4.10;1.20;;;-3.20;99.90;;;;;;4957259;28;20166;-57
2021/12/25 09:41:44;;;;;;;4.15;0.90;;;-3.20;99.90;;;;;;4968485;28;20521;-57
2021/12/25 09:44:10;;;;;;;3.85;0.90;;;-3.10;99.90;;;;;;4939025;28;20050;-58
2021/12/25 09:46:36;;;;;;;2.92;0.88;;;-3.10;99.90;;;;;;4959035;28;20046;-58
2021/12/25 09:49:02;;;;;;;5.47;1.10;;;-3.00;99.90;;;;;;4959897;28;20052;-57
2021/12/25 09:51:27;;;;;;;5.30;0.98;;;-2.90;99.90;;;;;;4962091;28;20510;-57
2021/12/25 09:54:14;;;;;;;3.35;0.80;;;-2.80;99.90;;;;;;4961424;28;21980;-58
2021/12/25 09:56:42;;;;;;;2.53;0.63;;;-2.70;99.90;;;;;;4958736;28;20761;-57
2021/12/25 09:59:12;;;;;;;2.67;0.63;;;-2.70;99.90;;;;;;4957963;28;20100;-57
2021/12/25 10:01:42;;;;;;;8.10;0.70;;;-2.70;99.90;;;;;;4956457;28;20058;-58
2021/12/25 10:04:10;;;;;;;6.45;1.05;;;-2.60;99.90;;;;;;4958303;28;20039;-58
2021/12/25 10:06:42;;;;;;;2.90;0.75;;;-2.60;99.90;;;;;;4955000;28;20042;-58
2021/12/25 10:09:19;;;;;;;3.50;0.90;;;-2.50;99.90;;;;;;4959635;28;20129;-57
2021/12/25 10:11:59;;;;;;;3.17;0.80;;;-2.40;99.90;;;;;;4959322;28;22060;-58
2021/12/25 10:14:26;;;;;;;3.90;0.80;;;-2.30;99.90;;;;;;4959240;28;20430;-57
2021/12/25 10:16:52;;;;;;;3.60;0.65;;;-2.20;99.90;;;;;;4958388;28;20085;-58
2021/12/25 10:19:22;;;;;;;2.25;0.60;;;-2.10;99.90;;;;;;4958268;28;20053;-58
2021/12/25 10:22:02;;;;;;;3.47;0.57;;;-1.90;99.90;;;;;;4960394;28;20840;-58
2021/12/25 10:24:29;;;;;;;1.52;0.52;;;-1.80;99.90;;;;;;4959558;28;20170;-58
2021/12/25 10:27:13;;;;;;;2.58;0.50;;;-1.60;99.90;;;;;;4958236;28;20057;-58
2021/12/25 10:29:39;;;;;;;3.00;1.10;;;-1.40;99.90;;;;;;4940166;28;20042;-58
2021/12/25 10:32:21;;;;;;;3.55;0.63;;;-1.10;99.90;;;;;;4959338;28;20069;-58
2021/12/25 10:34:49;;;;;;;3.17;0.70;;;-0.90;99.90;;;;;;4960002;28;20382;-58
2021/12/25 10:37:18;;;;;;;3.38;0.93;;;-0.50;99.90;;;;;;4965669;28;20580;-57
2021/12/25 10:39:45;;;;;;;4.57;1.08;;;-0.30;99.90;;;;;;4957990;28;20057;-58
2021/12/25 10:42:17;;;;;;;5.93;1.10;;;-0.10;99.90;;;;;;4986550;28;20141;-57
2021/12/25 10:44:55;;;;;;;3.60;0.95;;;0.10;99.90;;;;;;4979104;28;20071;-57
2021/12/25 10:47:23;;;;;;;3.00;1.10;;;0.20;99.90;;;;;;4979575;28;20137;-58
2021/12/25 10:49:57;;;;;;;2.95;0.80;;;0.40;99.90;;;;;;4972995;28;20476;-59
2021/12/25 10:52:30;;;;;;;3.63;0.80;;;0.50;99.90;;;;;;4977113;28;20057;-59
2021/12/25 10:55:02;;;;;;;4.82;0.80;;;0.70;99.90;;;;;;4976825;28;20034;-58
2021/12/25 10:57:44;;;;;;;2.75;0.65;;;0.80;99.90;;;;;;4978317;28;20405;-58
2021/12/25 11:00:22;;;;;;;1.42;0.57;;;0.70;99.90;;;;;;4976832;28;20054;-58
2021/12/25 11:02:55;;;;;;;1.77;0.63;;;0.70;99.90;;;;;;4982569;28;20043;-58
2021/12/25 11:05:28;;;;;;;3.08;0.80;;;0.60;99.90;;;;;;4978529;28;20101;-58
2021/12/25 11:08:08;;;;;;;2.53;0.70;;;0.20;99.90;;;;;;4989790;28;20038;-58
2021/12/25 11:10:41;;;;;;;1.52;0.68;;;-0.10;99.90;;;;;;4990188;28;20045;-58
2021/12/25 11:13:16;;;;;;;5.60;0.90;;;-0.10;99.90;;;;;;4986062;28;20040;-58
2021/12/25 11:15:42;;;;;;;2.63;0.80;;;0.00;99.90;;;;;;4980397;28;20037;-58
2021/12/25 11:18:09;;;;;;;4.25;0.68;;;0.10;99.90;;;;;;4978458;28;20038;-58
2021/12/25 11:20:38;;;;;;;2.25;0.63;;;0.20;99.90;;;;;;4976069;28;20402;-58
2021/12/25 11:23:08;;;;;;;4.65;0.70;;;0.30;99.90;;;;;;4983208;28;20035;-58
2021/12/25 11:25:35;;;;;;;3.88;0.80;;;0.40;99.90;;;;;;4975218;28;20053;-59
2021/12/25 11:28:06;;;;;;;7.75;0.75;;;0.40;99.90;;;;;;4978409;28;20038;-58
2021/12/25 11:30:34;;;;;;;1.98;0.60;;;0.40;99.90;;;;;;4959190;28;20057;-59
2021/12/25 11:33:00;;;;;;;2.85;0.77;;;0.50;99.90;;;;;;4974028;28;20141;-58
2021/12/25 11:35:27;;;;;;;5.38;1.02;;;0.70;99.90;;;;;;4974583;28;20054;-58
2021/12/25 11:37:58;;;;;;;2.95;0.88;;;0.90;99.90;;;;;;4977137;28;20517;-58
2021/12/25 11:40:29;;;;;;;1.48;0.77;;;1.00;99.90;;;;;;4976452;28;20047;-58
2021/12/25 11:42:59;;;;;;;1.90;0.85;;;1.10;99.90;;;;;;4980694;28;20058;-58
2021/12/25 11:45:30;;;;;;;3.17;0.65;;;1.20;99.90;;;;;;4982509;28;20041;-59
2021/12/25 11:47:59;;;;;;;3.88;1.05;;;1.20;99.90;;;;;;4980406;28;20074;-59
2021/12/25 11:50:41;;;;;;;3.53;0.80;;;1.20;99.90;;;;;;4976908;28;20108;-59
2021/12/25 11:53:14;;;;;;;3.95;1.00;;;1.30;99.90;;;;;;4983281;28;20034;-59
2021/12/25 11:58:36;;;;;;;3.80;0.85;;;1.40;99.90;;;;;;4976192;28;20059;-59
2021/12/25 12:01:20;;;;;;;2.78;0.73;;;1.50;99.90;;;;;;4981815;28;20050;-58
2021/12/25 12:03:54;;;;;;;1.38;0.60;;;1.60;99.90;;;;;;4982703;28;20043;-59
2021/12/25 12:06:40;;;;;;;1.75;0.68;;;1.60;99.90;;;;;;4989694;28;20121;-58
2021/12/25 12:09:10;;;;;;;3.25;0.82;;;1.60;99.90;;;;;;4978862;28;20129;-58
2021/12/25 12:11:40;;;;;;;2.58;0.88;;;1.60;99.90;;;;;;4981324;28;20077;-58
2021/12/25 12:14:12;;;;;;;2.63;0.70;;;1.60;99.90;;;;;;4984909;28;20386;-58
2021/12/25 12:16:40;;;;;;;2.95;0.70;;;1.70;99.90;;;;;;4978417;28;20398;-58
2021/12/25 12:19:39;;;;;;;3.50;0.80;;;1.60;99.90;;;;;;4976128;28;20129;-58
2021/12/25 12:22:28;;;;;;;2.88;1.08;;;1.50;99.90;;;;;;4981886;28;20129;-59
2021/12/25 12:25:27;;;;;;;2.45;0.82;;;1.40;99.90;;;;;;4977005;28;20398;-59
2021/12/25 12:28:02;;;;;;;5.68;1.00;;;1.30;99.90;;;;;;4979069;28;20070;-59
2021/12/25 12:30:30;;;;;;;2.35;0.70;;;1.40;99.90;;;;;;4973856;28;20046;-58
2021/12/25 12:33:19;;;;;;;5.68;1.30;;;1.50;99.90;;;;;;4977227;28;20062;-59
2021/12/25 12:35:54;;;;;;;4.07;0.88;;;1.50;99.90;;;;;;4980882;28;20474;-59
2021/12/25 12:38:37;;;;;;;3.20;0.63;;;1.50;99.90;;;;;;4970719;28;20038;-59
2021/12/25 12:41:16;;;;;;;2.45;0.75;;;1.60;99.90;;;;;;4988838;28;20397;-60
2021/12/25 12:44:03;;;;;;;3.05;0.80;;;1.60;99.90;;;;;;4981878;28;20046;-58
2021/12/25 12:46:47;;;;;;;4.95;0.90;;;1.70;99.90;;;;;;4977877;28;20039;-55
2021/12/25 12:49:13;;;;;;;;;;;1.90;99.90;;;;;;4970014;28;20077;-59
2021/12/25 12:51:39;;;;;;;2.60;0.90;;;1.90;99.90;;;;;;4978261;28;19933;-58
2021/12/25 12:54:05;;;;;;;3.13;0.80;;;2.00;99.90;;;;;;4982258;28;20367;-58
2021/12/25 12:56:31;;;;;;;5.53;1.17;;;2.20;99.90;;;;;;4976298;28;20054;-58
2021/12/25 12:58:58;;;;;;;2.53;0.60;;;2.10;99.90;;;;;;4977040;28;20051;-58
2021/12/25 13:01:25;;;;;;;3.50;0.80;;;2.20;99.90;;;;;;4978024;28;20112;-58
2021/12/25 13:03:59;;;;;;;2.75;0.82;;;2.30;99.90;;;;;;4983114;28;20125;-58
2021/12/25 13:06:31;;;;;;;4.05;0.95;;;2.30;99.90;;;;;;4975223;28;20042;-58
2021/12/25 13:09:04;;;;;;;7.00;1.02;;;2.30;99.90;;;;;;4973082;28;20551;-56
2021/12/25 13:11:32;;;;;;;3.80;0.95;;;2.40;99.90;;;;;;4972839;28;20034;-58
2021/12/25 13:14:00;;;;;;;2.47;0.73;;;2.30;99.90;;;;;;4973787;28;20046;-58
2021/12/25 13:16:43;;;;;;;3.95;0.90;;;2.30;99.90;;;;;;4973733;28;20402;-58
2021/12/25 13:19:09;;;;;;;3.15;0.90;;;2.10;99.90;;;;;;4979212;28;20182;-58
2021/12/25 13:21:36;;;;;;;3.28;0.80;;;1.90;99.90;;;;;;4974109;28;20155;-58
2021/12/25 13:24:13;;;;;;;3.17;0.80;;;1.70;99.90;;;;;;4974353;28;20077;-58
2021/12/25 13:26:45;;;;;;;5.00;0.85;;;1.50;99.90;;;;;;4983562;28;20089;-58
2021/12/25 13:29:14;;;;;;;3.60;1.10;;;1.30;99.90;;;;;;4975563;28;20045;-58
2021/12/25 13:31:42;;;;;;;5.38;1.20;;;1.20;99.90;;;;;;4981187;28;20078;-58
2021/12/25 13:34:15;;;;;;;5.00;0.95;;;1.20;99.90;;;;;;4973338;28;20046;-59
2021/12/25 13:36:46;;;;;;;7.90;1.30;;;1.20;99.90;;;;;;4979703;28;20043;-60
2021/12/25 13:39:16;;;;;;;3.63;0.88;;;1.20;99.90;;;;;;4979719;28;20046;-58
2021/12/25 13:41:45;;;;;;;5.07;1.45;;;1.40;99.90;;;;;;4959264;28;20093;-58
2021/12/25 13:44:14;;;;;;;2.78;1.10;;;1.20;99.90;;;;;;4981715;28;20065;-58
2021/12/25 13:46:47;;;;;;;3.25;0.90;;;1.20;99.90;;;;;;4973766;28;20039;-58
2021/12/25 13:49:38;;;;;;;3.80;1.05;;;1.10;99.90;;;;;;4977868;28;20053;-58
2021/12/25 13:52:07;;;;;;;5.90;1.20;;;1.10;99.20;;;;;;4972967;28;20081;-57
2021/12/25 13:54:35;;;;;;;5.35;1.70;;;0.90;99.90;;;;;;4972093;28;20386;-58
2021/12/25 13:57:01;;;;;;;4.80;1.70;;;1.10;99.90;;;;;;4973095;28;20149;-58
2021/12/25 13:59:28;;;;;;;5.20;1.27;;;0.80;99.90;;;;;;4972348;28;20082;-58
2021/12/25 14:02:13;;;;;;;3.72;1.13;;;0.70;99.90;;;;;;4971480;28;20457;-58
2021/12/25 14:04:41;;;;;;;6.28;1.42;;;0.60;99.90;;;;;;4971118;28;20038;-58
2021/12/25 14:07:07;;;;;;;3.88;1.52;;;0.50;99.90;;;;;;4973588;28;20065;-58
2021/12/25 14:09:33;;;;;;;3.35;1.17;;;0.30;99.90;;;;;;4972230;28;20113;-57
2021/12/25 14:12:00;;;;;;;3.97;1.30;;;0.20;99.90;;;;;;4972518;28;20039;-59
2021/12/25 14:14:28;;;;;;;3.63;1.40;;;0.10;99.90;;;;;;4971669;28;20046;-58